sensor_id;sensor_type;location;lat;lon;timestamp;pressure;altitude;pressure_sealevel;temperature;humidity
60437;BME280;46289;51.992;4.498;2023-08-12T00:00:36;101803.91;;;19.59;98.37
60437;BME280;46289;51.992;4.498;2023-08-12T00:02:44;101793.03;;;19.62;98.64
60437;BME280;46289;51.992;4.498;2023-08-12T00:04:57;101788.56;;;19.63;98.75
60437;BME280;46289;51.992;4.498;2023-08-12T00:07:18;101784.91;;;19.64;98.60
60437;BME280;46289;51.992;4.498;2023-08-12T00:09:23;101784.78;;;19.67;98.80
60437;BME280;46289;51.992;4.498;2023-08-12T00:11:29;101781.22;;;19.66;98.88
60437;BME280;46289;51.992;4.498;2023-08-12T00:13:36;101786.56;;;19.66;99.22
60437;BME280;46289;51.992;4.498;2023-08-12T00:15:43;101782.97;;;19.67;98.79
60437;BME280;46289;51.992;4.498;2023-08-12T00:17:50;101783.69;;;19.69;98.73
60437;BME280;46289;51.992;4.498;2023-08-12T00:19:58;101784.47;;;19.71;98.60
60437;BME280;46289;51.992;4.498;2023-08-12T00:22:06;101782.97;;;19.67;98.68
60437;BME280;46289;51.992;4.498;2023-08-12T00:24:19;101778.72;;;19.63;99.12
60437;BME280;46289;51.992;4.498;2023-08-12T00:26:24;101777.97;;;19.61;99.59
60437;BME280;46289;51.992;4.498;2023-08-12T00:28:30;101768.47;;;19.57;99.08
60437;BME280;46289;51.992;4.498;2023-08-12T00:30:35;101773.81;;;19.57;99.59
60437;BME280;46289;51.992;4.498;2023-08-12T00:32:39;101765.31;;;19.65;98.85
60437;BME280;46289;51.992;4.498;2023-08-12T00:34:44;101764.63;;;19.61;98.93
60437;BME280;46289;51.992;4.498;2023-08-12T00:36:50;101769.03;;;19.62;98.68
60437;BME280;46289;51.992;4.498;2023-08-12T00:38:55;101754.94;;;19.60;98.87
60437;BME280;46289;51.992;4.498;2023-08-12T00:41:03;101755.78;;;19.61;98.85
60437;BME280;46289;51.992;4.498;2023-08-12T00:43:06;101761.03;;;19.62;98.98
60437;BME280;46289;51.992;4.498;2023-08-12T00:45:11;101753.13;;;19.61;98.84
60437;BME280;46289;51.992;4.498;2023-08-12T00:47:17;101749.31;;;19.65;98.87
60437;BME280;46289;51.992;4.498;2023-08-12T00:49:22;101747.69;;;19.62;98.77
60437;BME280;46289;51.992;4.498;2023-08-12T00:51:25;101745.88;;;19.63;99.15
60437;BME280;46289;51.992;4.498;2023-08-12T00:53:31;101741.22;;;19.66;98.77
60437;BME280;46289;51.992;4.498;2023-08-12T00:55:36;101745.31;;;19.72;98.18
60437;BME280;46289;51.992;4.498;2023-08-12T00:57:44;101743.13;;;19.64;98.34
60437;BME280;46289;51.992;4.498;2023-08-12T00:59:50;101750.38;;;19.62;99.19
60437;BME280;46289;51.992;4.498;2023-08-12T01:01:55;101744.19;;;19.62;98.95
60437;BME280;46289;51.992;4.498;2023-08-12T01:04:03;101746.16;;;19.58;99.32
60437;BME280;46289;51.992;4.498;2023-08-12T01:06:09;101737.31;;;19.58;99.46
60437;BME280;46289;51.992;4.498;2023-08-12T01:08:14;101729.25;;;19.59;99.58
60437;BME280;46289;51.992;4.498;2023-08-12T01:10:17;101728.56;;;19.56;99.98
60437;BME280;46289;51.992;4.498;2023-08-12T01:12:26;101735.63;;;19.57;100.00
60437;BME280;46289;51.992;4.498;2023-08-12T01:14:38;101739.91;;;19.59;100.00
60437;BME280;46289;51.992;4.498;2023-08-12T01:16:50;101734.75;;;19.56;100.00
60437;BME280;46289;51.992;4.498;2023-08-12T01:18:56;101727.72;;;19.55;100.00
60437;BME280;46289;51.992;4.498;2023-08-12T01:21:08;101730.09;;;19.60;100.00
60437;BME280;46289;51.992;4.498;2023-08-12T01:23:17;101718.75;;;19.56;100.00
60437;BME280;46289;51.992;4.498;2023-08-12T01:25:22;101713.41;;;19.56;100.00
60437;BME280;46289;51.992;4.498;2023-08-12T01:27:25;101718.56;;;19.59;100.00
60437;BME280;46289;51.992;4.498;2023-08-12T01:29:30;101713.25;;;19.59;100.00
60437;BME280;46289;51.992;4.498;2023-08-12T01:31:41;101711.50;;;19.58;100.00
60437;BME280;46289;51.992;4.498;2023-08-12T01:33:54;101715.69;;;19.62;100.00
60437;BME280;46289;51.992;4.498;2023-08-12T01:36:04;101709.41;;;19.63;100.00
60437;BME280;46289;51.992;4.498;2023-08-12T01:38:12;101707.78;;;19.61;100.00
60437;BME280;46289;51.992;4.498;2023-08-12T01:40:19;101713.41;;;19.56;100.00
60437;BME280;46289;51.992;4.498;2023-08-12T01:42:27;101704.69;;;19.54;100.00
60437;BME280;46289;51.992;4.498;2023-08-12T01:44:32;101701.91;;;19.56;100.00
60437;BME280;46289;51.992;4.498;2023-08-12T01:46:37;101698.38;;;19.55;100.00
60437;BME280;46289;51.992;4.498;2023-08-12T01:48:42;101695.81;;;19.53;100.00
60437;BME280;46289;51.992;4.498;2023-08-12T01:50:45;101699.63;;;19.49;100.00
60437;BME280;46289;51.992;4.498;2023-08-12T01:52:50;101699.56;;;19.51;100.00
60437;BME280;46289;51.992;4.498;2023-08-12T01:54:55;101695.63;;;19.57;100.00
60437;BME280;46289;51.992;4.498;2023-08-12T01:57:06;101692.28;;;19.53;100.00
60437;BME280;46289;51.992;4.498;2023-08-12T01:59:10;101686.59;;;19.59;100.00
60437;BME280;46289;51.992;4.498;2023-08-12T02:01:15;101685.53;;;19.62;100.00
60437;BME280;46289;51.992;4.498;2023-08-12T02:03:22;101685.53;;;19.62;100.00
60437;BME280;46289;51.992;4.498;2023-08-12T02:05:27;101681.81;;;19.64;100.00
60437;BME280;46289;51.992;4.498;2023-08-12T02:07:32;101683.16;;;19.57;100.00
60437;BME280;46289;51.992;4.498;2023-08-12T02:09:37;101670.75;;;19.56;100.00
60437;BME280;46289;51.992;4.498;2023-08-12T02:11:43;101672.47;;;19.57;100.00
60437;BME280;46289;51.992;4.498;2023-08-12T02:13:52;101672.28;;;19.60;100.00
60437;BME280;46289;51.992;4.498;2023-08-12T02:15:57;101673.97;;;19.61;100.00
60437;BME280;46289;51.992;4.498;2023-08-12T02:18:03;101674.66;;;19.65;100.00
60437;BME280;46289;51.992;4.498;2023-08-12T02:20:10;101671.03;;;19.66;100.00
60437;BME280;46289;51.992;4.498;2023-08-12T02:22:15;101672.84;;;19.65;100.00
60437;BME280;46289;51.992;4.498;2023-08-12T02:24:20;101666.28;;;19.71;100.00
60437;BME280;46289;51.992;4.498;2023-08-12T02:26:25;101664.56;;;19.70;100.00
60437;BME280;46289;51.992;4.498;2023-08-12T02:28:31;101678.00;;;19.68;100.00
60437;BME280;46289;51.992;4.498;2023-08-12T02:30:38;101666.66;;;19.65;100.00
60437;BME280;46289;51.992;4.498;2023-08-12T02:32:43;101661.31;;;19.65;100.00
60437;BME280;46289;51.992;4.498;2023-08-12T02:34:50;101664.50;;;19.57;100.00
60437;BME280;46289;51.992;4.498;2023-08-12T02:36:55;101662.22;;;19.51;100.00
60437;BME280;46289;51.992;4.498;2023-08-12T02:39:00;101665.19;;;19.46;100.00
60437;BME280;46289;51.992;4.498;2023-08-12T02:41:06;101662.72;;;19.43;100.00
60437;BME280;46289;51.992;4.498;2023-08-12T02:43:11;101668.22;;;19.40;100.00
60437;BME280;46289;51.992;4.498;2023-08-12T02:45:16;101653.19;;;19.39;100.00
60437;BME280;46289;51.992;4.498;2023-08-12T02:47:24;101650.03;;;19.47;100.00
60437;BME280;46289;51.992;4.498;2023-08-12T02:49:27;101639.59;;;19.44;100.00
60437;BME280;46289;51.992;4.498;2023-08-12T02:51:32;101648.34;;;19.46;100.00
60437;BME280;46289;51.992;4.498;2023-08-12T02:53:37;101647.47;;;19.45;100.00
60437;BME280;46289;51.992;4.498;2023-08-12T02:55:44;101648.50;;;19.43;100.00
60437;BME280;46289;51.992;4.498;2023-08-12T02:57:49;101643.19;;;19.43;100.00
60437;BME280;46289;51.992;4.498;2023-08-12T02:59:55;101645.13;;;19.41;100.00
60437;BME280;46289;51.992;4.498;2023-08-12T03:02:06;101643.38;;;19.40;100.00
60437;BME280;46289;51.992;4.498;2023-08-12T03:04:13;101641.69;;;19.39;100.00
60437;BME280;46289;51.992;4.498;2023-08-12T03:06:18;101639.59;;;19.44;100.00
60437;BME280;46289;51.992;4.498;2023-08-12T03:08:23;101631.28;;;19.48;100.00
60437;BME280;46289;51.992;4.498;2023-08-12T03:10:32;101633.97;;;19.48;100.00
60437;BME280;46289;51.992;4.498;2023-08-12T03:12:37;101633.50;;;19.42;100.00
60437;BME280;46289;51.992;4.498;2023-08-12T03:14:42;101624.44;;;19.44;100.00
60437;BME280;46289;51.992;4.498;2023-08-12T03:16:45;101615.69;;;19.42;100.00
60437;BME280;46289;51.992;4.498;2023-08-12T03:18:50;101609.50;;;19.42;100.00
60437;BME280;46289;51.992;4.498;2023-08-12T03:20:57;101613.88;;;19.43;100.00
60437;BME280;46289;51.992;4.498;2023-08-12T03:23:00;101608.53;;;19.43;100.00
60437;BME280;46289;51.992;4.498;2023-08-12T03:25:06;101605.13;;;19.41;100.00
60437;BME280;46289;51.992;4.498;2023-08-12T03:27:11;101603.31;;;19.41;100.00
60437;BME280;46289;51.992;4.498;2023-08-12T03:29:16;101609.59;;;19.40;100.00
60437;BME280;46289;51.992;4.498;2023-08-12T03:31:21;101614.19;;;19.38;100.00
60437;BME280;46289;51.992;4.498;2023-08-12T03:33:25;101614.75;;;19.43;100.00
60437;BME280;46289;51.992;4.498;2023-08-12T03:35:31;101607.81;;;19.41;100.00
60437;BME280;46289;51.992;4.498;2023-08-12T03:37:36;101608.84;;;19.38;100.00
60437;BME280;46289;51.992;4.498;2023-08-12T03:39:41;101602.75;;;19.36;100.00
60437;BME280;46289;51.992;4.498;2023-08-12T03:41:46;101609.03;;;19.35;100.00
60437;BME280;46289;51.992;4.498;2023-08-12T03:43:53;101607.44;;;19.33;100.00
60437;BME280;46289;51.992;4.498;2023-08-12T03:45:58;101607.63;;;19.29;100.00
60437;BME280;46289;51.992;4.498;2023-08-12T03:48:04;101609.22;;;19.32;100.00
60437;BME280;46289;51.992;4.498;2023-08-12T03:50:09;101589.28;;;19.25;100.00
60437;BME280;46289;51.992;4.498;2023-08-12T03:52:12;101595.28;;;19.28;100.00
60437;BME280;46289;51.992;4.498;2023-08-12T03:54:20;101584.53;;;19.30;100.00
60437;BME280;46289;51.992;4.498;2023-08-12T03:56:28;101586.78;;;19.36;100.00
60437;BME280;46289;51.992;4.498;2023-08-12T03:58:33;101583.34;;;19.34;100.00
60437;BME280;46289;51.992;4.498;2023-08-12T04:00:41;101577.59;;;19.27;100.00
60437;BME280;46289;51.992;4.498;2023-08-12T04:02:46;101581.09;;;19.28;100.00
60437;BME280;46289;51.992;4.498;2023-08-12T04:04:53;101575.09;;;19.24;100.00
60437;BME280;46289;51.992;4.498;2023-08-12T04:06:58;101566.16;;;19.25;100.00
60437;BME280;46289;51.992;4.498;2023-08-12T04:09:05;101555.50;;;19.25;100.00
60437;BME280;46289;51.992;4.498;2023-08-12T04:11:13;101551.09;;;19.24;100.00
60437;BME280;46289;51.992;4.498;2023-08-12T04:13:22;101560.41;;;19.32;100.00
60437;BME280;46289;51.992;4.498;2023-08-12T04:15:27;101553.06;;;19.35;100.00
60437;BME280;46289;51.992;4.498;2023-08-12T04:17:35;101549.88;;;19.30;100.00
60437;BME280;46289;51.992;4.498;2023-08-12T04:19:52;101546.94;;;19.20;100.00
60437;BME280;46289;51.992;4.498;2023-08-12T04:22:21;101536.09;;;19.23;100.00
60437;BME280;46289;51.992;4.498;2023-08-12T04:24:26;101548.91;;;19.31;100.00
60437;BME280;46289;51.992;4.498;2023-08-12T04:26:34;101549.75;;;19.32;100.00
60437;BME280;46289;51.992;4.498;2023-08-12T04:28:38;101542.19;;;19.25;100.00
60437;BME280;46289;51.992;4.498;2023-08-12T04:30:48;101551.78;;;19.28;100.00
60437;BME280;46289;51.992;4.498;2023-08-12T04:32:54;101546.66;;;19.25;100.00
60437;BME280;46289;51.992;4.498;2023-08-12T04:35:01;101542.94;;;19.27;100.00
60437;BME280;46289;51.992;4.498;2023-08-12T04:37:07;101536.94;;;19.24;100.00
60437;BME280;46289;51.992;4.498;2023-08-12T04:39:15;101538.66;;;19.25;100.00
60437;BME280;46289;51.992;4.498;2023-08-12T04:41:20;101534.28;;;19.24;100.00
60437;BME280;46289;51.992;4.498;2023-08-12T04:43:31;101531.53;;;19.25;100.00
60437;BME280;46289;51.992;4.498;2023-08-12T04:45:37;101534.63;;;19.32;100.00
60437;BME280;46289;51.992;4.498;2023-08-12T04:47:43;101533.78;;;19.32;100.00
60437;BME280;46289;51.992;4.498;2023-08-12T04:49:51;101533.34;;;19.38;100.00
60437;BME280;46289;51.992;4.498;2023-08-12T04:51:58;101533.78;;;19.32;100.00
60437;BME280;46289;51.992;4.498;2023-08-12T04:54:05;101527.50;;;19.33;100.00
60437;BME280;46289;51.992;4.498;2023-08-12T04:56:07;101521.19;;;19.34;100.00
60437;BME280;46289;51.992;4.498;2023-08-12T04:58:12;101514.19;;;19.33;100.00
60437;BME280;46289;51.992;4.498;2023-08-12T05:00:23;101518.53;;;19.34;100.00
60437;BME280;46289;51.992;4.498;2023-08-12T05:02:34;101517.19;;;19.41;100.00
60437;BME280;46289;51.992;4.498;2023-08-12T05:04:52;101516.22;;;19.42;100.00
60437;BME280;46289;51.992;4.498;2023-08-12T05:06:57;101512.78;;;19.40;100.00
60437;BME280;46289;51.992;4.498;2023-08-12T05:09:04;101520.91;;;19.38;100.00
60437;BME280;46289;51.992;4.498;2023-08-12T05:11:19;101522.69;;;19.38;100.00
60437;BME280;46289;51.992;4.498;2023-08-12T05:13:24;101535.50;;;19.33;100.00
60437;BME280;46289;51.992;4.498;2023-08-12T05:15:32;101531.41;;;19.27;100.00
60437;BME280;46289;51.992;4.498;2023-08-12T05:17:42;101535.13;;;19.24;100.00
60437;BME280;46289;51.992;4.498;2023-08-12T05:19:49;101532.78;;;19.20;100.00
60437;BME280;46289;51.992;4.498;2023-08-12T05:21:54;101529.25;;;19.19;100.00
60437;BME280;46289;51.992;4.498;2023-08-12T05:23:59;101535.63;;;19.17;100.00
60437;BME280;46289;51.992;4.498;2023-08-12T05:26:07;101538.13;;;19.20;100.00
60437;BME280;46289;51.992;4.498;2023-08-12T05:28:10;101529.84;;;19.10;100.00
60437;BME280;46289;51.992;4.498;2023-08-12T05:30:20;101528.34;;;19.06;100.00
60437;BME280;46289;51.992;4.498;2023-08-12T05:32:27;101531.56;;;19.11;100.00
60437;BME280;46289;51.992;4.498;2023-08-12T05:34:42;101526.63;;;19.05;100.00
60437;BME280;46289;51.992;4.498;2023-08-12T05:36:50;101525.88;;;19.03;100.00
60437;BME280;46289;51.992;4.498;2023-08-12T05:38:55;101528.75;;;19.00;100.00
60437;BME280;46289;51.992;4.498;2023-08-12T05:41:03;101533.78;;;19.04;100.00
60437;BME280;46289;51.992;4.498;2023-08-12T05:43:09;101531.97;;;19.05;100.00
60437;BME280;46289;51.992;4.498;2023-08-12T05:45:14;101528.75;;;19.00;100.00
60437;BME280;46289;51.992;4.498;2023-08-12T05:47:19;101523.50;;;18.98;100.00
60437;BME280;46289;51.992;4.498;2023-08-12T05:49:29;101520.97;;;18.97;100.00
60437;BME280;46289;51.992;4.498;2023-08-12T05:51:34;101523.72;;;18.95;100.00
60437;BME280;46289;51.992;4.498;2023-08-12T05:53:47;101514.09;;;18.93;100.00
60437;BME280;46289;51.992;4.498;2023-08-12T05:55:55;101518.50;;;18.94;100.00
60437;BME280;46289;51.992;4.498;2023-08-12T05:58:01;101518.59;;;18.92;100.00
60437;BME280;46289;51.992;4.498;2023-08-12T06:00:07;101516.59;;;18.96;100.00
60437;BME280;46289;51.992;4.498;2023-08-12T06:02:22;101513.81;;;18.97;100.00
60437;BME280;46289;51.992;4.498;2023-08-12T06:04:34;101511.06;;;18.99;100.00
60437;BME280;46289;51.992;4.498;2023-08-12T06:06:54;101515.63;;;18.97;100.00
60437;BME280;46289;51.992;4.498;2023-08-12T06:09:02;101512.97;;;18.97;100.00
60437;BME280;46289;51.992;4.498;2023-08-12T06:11:07;101517.25;;;18.99;100.00
60437;BME280;46289;51.992;4.498;2023-08-12T06:13:12;101521.72;;;18.99;100.00
60437;BME280;46289;51.992;4.498;2023-08-12T06:15:21;101521.03;;;18.95;100.00
60437;BME280;46289;51.992;4.498;2023-08-12T06:17:27;101520.75;;;19.00;100.00
60437;BME280;46289;51.992;4.498;2023-08-12T06:19:36;101517.25;;;18.99;100.00
60437;BME280;46289;51.992;4.498;2023-08-12T06:21:44;101516.94;;;19.04;100.00
60437;BME280;46289;51.992;4.498;2023-08-12T06:23:59;101518.84;;;19.02;100.00
60437;BME280;46289;51.992;4.498;2023-08-12T06:26:06;101519.63;;;19.04;100.00
60437;BME280;46289;51.992;4.498;2023-08-12T06:28:16;101515.22;;;19.03;100.00
60437;BME280;46289;51.992;4.498;2023-08-12T06:30:21;101516.19;;;19.02;100.00
60437;BME280;46289;51.992;4.498;2023-08-12T06:32:33;101513.41;;;19.03;100.00
60437;BME280;46289;51.992;4.498;2023-08-12T06:34:44;101516.63;;;19.08;100.00
60437;BME280;46289;51.992;4.498;2023-08-12T06:36:49;101507.44;;;19.00;100.00
60437;BME280;46289;51.992;4.498;2023-08-12T06:38:54;101504.34;;;19.06;100.00
60437;BME280;46289;51.992;4.498;2023-08-12T06:41:00;101500.75;;;19.07;100.00
60437;BME280;46289;51.992;4.498;2023-08-12T06:43:05;101502.75;;;19.03;100.00
60437;BME280;46289;51.992;4.498;2023-08-12T06:45:11;101507.13;;;19.04;100.00
60437;BME280;46289;51.992;4.498;2023-08-12T06:47:16;101513.13;;;19.08;100.00
60437;BME280;46289;51.992;4.498;2023-08-12T06:49:20;101510.66;;;19.05;100.00
60437;BME280;46289;51.992;4.498;2023-08-12T06:51:27;101507.13;;;19.04;100.00
60437;BME280;46289;51.992;4.498;2023-08-12T06:53:36;101513.22;;;19.06;100.00
60437;BME280;46289;51.992;4.498;2023-08-12T06:55:44;101513.13;;;19.08;100.00
60437;BME280;46289;51.992;4.498;2023-08-12T06:57:51;101514.09;;;19.07;100.00
60437;BME280;46289;51.992;4.498;2023-08-12T06:59:56;101518.56;;;19.06;100.00
60437;BME280;46289;51.992;4.498;2023-08-12T07:01:58;101513.22;;;19.06;100.00
60437;BME280;46289;51.992;4.498;2023-08-12T07:04:06;101517.88;;;19.03;100.00
60437;BME280;46289;51.992;4.498;2023-08-12T07:06:11;101512.56;;;19.03;100.00
60437;BME280;46289;51.992;4.498;2023-08-12T07:08:19;101525.66;;;19.06;100.00
60437;BME280;46289;51.992;4.498;2023-08-12T07:10:24;101548.34;;;18.99;100.00
60437;BME280;46289;51.992;4.498;2023-08-12T07:12:30;101549.69;;;17.91;100.00
60437;BME280;46289;51.992;4.498;2023-08-12T07:14:35;101545.03;;;17.65;100.00
60437;BME280;46289;51.992;4.498;2023-08-12T07:16:40;101556.13;;;17.57;100.00
60437;BME280;46289;51.992;4.498;2023-08-12T07:18:45;101549.63;;;17.47;100.00
60437;BME280;46289;51.992;4.498;2023-08-12T07:20:50;101549.66;;;17.31;100.00
60437;BME280;46289;51.992;4.498;2023-08-12T07:22:55;101559.31;;;17.32;100.00
60437;BME280;46289;51.992;4.498;2023-08-12T07:25:04;101557.03;;;17.26;100.00
60437;BME280;46289;51.992;4.498;2023-08-12T07:27:18;101543.22;;;17.19;100.00
60437;BME280;46289;51.992;4.498;2023-08-12T07:29:40;101552.81;;;17.22;100.00
60437;BME280;46289;51.992;4.498;2023-08-12T07:32:17;101541.44;;;17.20;100.00
60437;BME280;46289;51.992;4.498;2023-08-12T07:34:31;101544.59;;;17.26;100.00
60437;BME280;46289;51.992;4.498;2023-08-12T07:37:04;101539.53;;;17.22;100.00
60437;BME280;46289;51.992;4.498;2023-08-12T07:39:26;101536.81;;;17.07;100.00
60437;BME280;46289;51.992;4.498;2023-08-12T07:41:34;101537.34;;;16.98;100.00
60437;BME280;46289;51.992;4.498;2023-08-12T07:43:39;101541.69;;;17.15;100.00
60437;BME280;46289;51.992;4.498;2023-08-12T07:46:01;101551.63;;;17.27;100.00
60437;BME280;46289;51.992;4.498;2023-08-12T07:48:11;101560.94;;;17.34;100.00
60437;BME280;46289;51.992;4.498;2023-08-12T07:50:17;101566.63;;;17.28;100.00
60437;BME280;46289;51.992;4.498;2023-08-12T07:52:26;101578.63;;;17.20;100.00
60437;BME280;46289;51.992;4.498;2023-08-12T07:54:31;101576.41;;;17.28;100.00
60437;BME280;46289;51.992;4.498;2023-08-12T07:56:41;101577.22;;;17.44;100.00
60437;BME280;46289;51.992;4.498;2023-08-12T07:58:47;101570.91;;;17.31;100.00
60437;BME280;46289;51.992;4.498;2023-08-12T08:00:58;101579.47;;;17.36;100.00
60437;BME280;46289;51.992;4.498;2023-08-12T08:03:05;101569.88;;;17.33;100.00
60437;BME280;46289;51.992;4.498;2023-08-12T08:05:10;101572.59;;;17.32;100.00
60437;BME280;46289;51.992;4.498;2023-08-12T08:07:15;101570.66;;;17.36;100.00
60437;BME280;46289;51.992;4.498;2023-08-12T08:09:34;101564.56;;;17.33;100.00
60437;BME280;46289;51.992;4.498;2023-08-12T08:11:44;101558.38;;;17.49;100.00
60437;BME280;46289;51.992;4.498;2023-08-12T08:13:58;101559.13;;;17.35;100.00
60437;BME280;46289;51.992;4.498;2023-08-12T08:16:08;101543.78;;;17.40;100.00
60437;BME280;46289;51.992;4.498;2023-08-12T08:18:14;101559.81;;;17.54;100.00
60437;BME280;46289;51.992;4.498;2023-08-12T08:20:19;101565.31;;;17.82;100.00
60437;BME280;46289;51.992;4.498;2023-08-12T08:22:24;101559.38;;;17.76;100.00
60437;BME280;46289;51.992;4.498;2023-08-12T08:24:33;101570.00;;;17.92;100.00
60437;BME280;46289;51.992;4.498;2023-08-12T08:26:39;101572.41;;;18.11;100.00
60437;BME280;46289;51.992;4.498;2023-08-12T08:28:50;101579.72;;;18.08;100.00
60437;BME280;46289;51.992;4.498;2023-08-12T08:30:55;101572.25;;;18.29;100.00
60437;BME280;46289;51.992;4.498;2023-08-12T08:33:05;101571.41;;;18.57;100.00
60437;BME280;46289;51.992;4.498;2023-08-12T08:35:11;101565.69;;;18.63;100.00
60437;BME280;46289;51.992;4.498;2023-08-12T08:37:21;101553.69;;;18.70;100.00
60437;BME280;46289;51.992;4.498;2023-08-12T08:39:26;101560.72;;;18.71;100.00
60437;BME280;46289;51.992;4.498;2023-08-12T08:41:30;101553.50;;;18.88;100.00
60437;BME280;46289;51.992;4.498;2023-08-12T08:43:42;101553.69;;;18.99;100.00
60437;BME280;46289;51.992;4.498;2023-08-12T08:45:52;101545.41;;;18.89;100.00
60437;BME280;46289;51.992;4.498;2023-08-12T08:48:01;101557.13;;;18.72;100.00
60437;BME280;46289;51.992;4.498;2023-08-12T08:50:25;101553.38;;;19.30;100.00
60437;BME280;46289;51.992;4.498;2023-08-12T08:52:33;101546.63;;;19.52;100.00
60437;BME280;46289;51.992;4.498;2023-08-12T08:54:39;101544.91;;;19.78;100.00
60437;BME280;46289;51.992;4.498;2023-08-12T08:56:48;101543.75;;;20.46;100.00
60437;BME280;46289;51.992;4.498;2023-08-12T08:59:00;101561.44;;;21.10;100.00
60437;BME280;46289;51.992;4.498;2023-08-12T09:01:12;101560.00;;;21.17;100.00
60437;BME280;46289;51.992;4.498;2023-08-12T09:03:21;101555.75;;;21.14;99.25
60437;BME280;46289;51.992;4.498;2023-08-12T09:05:29;101551.66;;;20.97;98.77
60437;BME280;46289;51.992;4.498;2023-08-12T09:07:38;101558.91;;;20.58;98.00
60437;BME280;46289;51.992;4.498;2023-08-12T09:09:52;101563.81;;;21.38;96.82
60437;BME280;46289;51.992;4.498;2023-08-12T09:11:57;101555.72;;;21.51;93.04
60437;BME280;46289;51.992;4.498;2023-08-12T09:14:03;101565.00;;;21.69;93.33
60437;BME280;46289;51.992;4.498;2023-08-12T09:18:55;101573.78;;;22.18;91.94
60437;BME280;46289;51.992;4.498;2023-08-12T09:21:00;101574.50;;;21.38;91.10
60437;BME280;46289;51.992;4.498;2023-08-12T09:23:07;101566.38;;;21.40;93.77
60437;BME280;46289;51.992;4.498;2023-08-12T09:25:13;101588.41;;;21.43;90.63
60437;BME280;46289;51.992;4.498;2023-08-12T09:27:18;101597.50;;;21.41;86.84
60437;BME280;46289;51.992;4.498;2023-08-12T09:29:23;101585.84;;;21.77;85.15
60437;BME280;46289;51.992;4.498;2023-08-12T09:31:31;101593.28;;;21.85;80.15
60437;BME280;46289;51.992;4.498;2023-08-12T09:33:39;101588.09;;;22.52;78.22
60437;BME280;46289;51.992;4.498;2023-08-12T09:35:44;101599.06;;;22.14;73.23
60437;BME280;46289;51.992;4.498;2023-08-12T09:37:49;101595.13;;;21.96;75.20
60437;BME280;46289;51.992;4.498;2023-08-12T09:39:52;101591.59;;;22.42;75.80
60437;BME280;46289;51.992;4.498;2023-08-12T09:41:59;101591.13;;;22.70;74.31
60437;BME280;46289;51.992;4.498;2023-08-12T09:44:08;101599.00;;;21.80;76.30
60437;BME280;46289;51.992;4.498;2023-08-12T09:46:22;101597.03;;;21.82;77.21
60437;BME280;46289;51.992;4.498;2023-08-12T09:48:30;101612.00;;;21.50;79.33
60437;BME280;46289;51.992;4.498;2023-08-12T09:50:39;101607.03;;;21.56;78.77
60437;BME280;46289;51.992;4.498;2023-08-12T09:52:44;101607.25;;;21.53;79.69
60437;BME280;46289;51.992;4.498;2023-08-12T09:54:49;101598.72;;;21.72;80.85
60437;BME280;46289;51.992;4.498;2023-08-12T09:57:08;101601.03;;;21.29;76.61
60437;BME280;46289;51.992;4.498;2023-08-12T09:59:19;101609.03;;;22.01;78.11
60437;BME280;46289;51.992;4.498;2023-08-12T10:01:27;101601.75;;;22.14;78.40
60437;BME280;46289;51.992;4.498;2023-08-12T10:03:36;101595.25;;;23.08;77.17
60437;BME280;46289;51.992;4.498;2023-08-12T10:05:47;101605.47;;;23.14;75.11
60437;BME280;46289;51.992;4.498;2023-08-12T10:07:55;101606.44;;;22.79;74.59
60437;BME280;46289;51.992;4.498;2023-08-12T10:10:10;101604.75;;;22.33;73.93
60437;BME280;46289;51.992;4.498;2023-08-12T10:12:16;101606.94;;;22.51;75.60
60437;BME280;46289;51.992;4.498;2023-08-12T10:14:23;101605.75;;;22.44;73.65
60437;BME280;46289;51.992;4.498;2023-08-12T10:16:41;101612.28;;;22.28;74.85
60437;BME280;46289;51.992;4.498;2023-08-12T10:19:10;101608.56;;;22.65;75.14
60437;BME280;46289;51.992;4.498;2023-08-12T10:21:23;101609.53;;;22.97;74.48
60437;BME280;46289;51.992;4.498;2023-08-12T10:23:33;101610.03;;;23.35;72.22
60437;BME280;46289;51.992;4.498;2023-08-12T10:25:43;101608.47;;;23.76;70.81
60437;BME280;46289;51.992;4.498;2023-08-12T10:28:00;101603.81;;;23.66;70.52
60437;BME280;46289;51.992;4.498;2023-08-12T10:30:08;101602.50;;;23.93;70.15
60437;BME280;46289;51.992;4.498;2023-08-12T10:32:16;101598.16;;;24.44;70.27
60437;BME280;46289;51.992;4.498;2023-08-12T10:34:23;101610.38;;;24.27;68.25
60437;BME280;46289;51.992;4.498;2023-08-12T10:36:32;101599.13;;;23.91;66.92
60437;BME280;46289;51.992;4.498;2023-08-12T10:38:50;101602.88;;;23.67;66.25
60437;BME280;46289;51.992;4.498;2023-08-12T10:41:18;101596.41;;;23.70;66.71
60437;BME280;46289;51.992;4.498;2023-08-12T10:43:26;101590.41;;;24.20;65.95
60437;BME280;46289;51.992;4.498;2023-08-12T10:45:43;101591.50;;;24.38;64.54
60437;BME280;46289;51.992;4.498;2023-08-12T10:48:15;101590.63;;;24.38;67.89
60437;BME280;46289;51.992;4.498;2023-08-12T10:50:26;101597.28;;;24.43;65.72
60437;BME280;46289;51.992;4.498;2023-08-12T10:52:41;101596.72;;;23.01;67.17
60437;BME280;46289;51.992;4.498;2023-08-12T10:54:54;101599.97;;;23.92;64.70
60437;BME280;46289;51.992;4.498;2023-08-12T10:57:06;101596.28;;;23.72;64.68
60437;BME280;46289;51.992;4.498;2023-08-12T11:01:52;101592.13;;;24.00;67.06
60437;BME280;46289;51.992;4.498;2023-08-12T11:03:58;101595.78;;;24.20;65.44
60437;BME280;46289;51.992;4.498;2023-08-12T11:06:05;101588.56;;;24.20;65.43
60437;BME280;46289;51.992;4.498;2023-08-12T11:08:13;101584.00;;;24.63;64.64